createdAt,value
2018-03-18T00:01:03.451Z,96765.38
2018-03-18T00:03:30.912Z,96766.29
2018-03-18T00:05:58.378Z,96768.50
2018-03-18T00:08:25.857Z,96766.36
2018-03-18T00:10:53.296Z,96766.02
2018-03-18T00:13:20.752Z,96770.62
2018-03-18T00:15:48.358Z,96768.68
2018-03-18T00:18:15.818Z,96770.62
2018-03-18T00:20:43.354Z,96773.03
2018-03-18T00:23:10.859Z,96770.06
2018-03-18T00:25:38.366Z,96775.15
2018-03-18T00:28:05.915Z,96780.12
2018-03-18T00:30:33.371Z,96776.64
2018-03-18T00:33:00.816Z,96775.42
2018-03-18T00:35:28.293Z,96774.39
2018-03-18T00:37:55.769Z,96779.59
2018-03-18T00:40:23.276Z,96774.84
2018-03-18T00:42:50.734Z,96775.69
2018-03-18T00:45:18.226Z,96775.21
2018-03-18T00:47:45.691Z,96771.84
2018-03-18T00:50:13.183Z,96766.64
2018-03-18T00:52:40.671Z,96772.55
2018-03-18T00:55:08.141Z,96767.34
2018-03-18T00:57:35.738Z,96766.95
2018-03-18T01:00:03.188Z,96767.80
2018-03-18T01:02:30.676Z,96759.73
2018-03-18T01:04:58.153Z,96769.84
2018-03-18T01:07:25.627Z,96771.49
2018-03-18T01:09:53.082Z,96764.66
2018-03-18T01:12:20.546Z,96766.97
2018-03-18T01:14:48.022Z,96763.86
2018-03-18T01:17:15.502Z,96759.42
2018-03-18T01:19:42.996Z,96757.11
2018-03-18T01:22:10.455Z,96755.94
2018-03-18T01:24:38.012Z,96759.21
2018-03-18T01:27:05.494Z,96752.52
2018-03-18T01:29:32.940Z,96750.54
2018-03-18T01:32:00.497Z,96745.50
2018-03-18T01:34:27.950Z,96747.48
2018-03-18T01:36:55.411Z,96746.74
2018-03-18T01:39:22.885Z,96748.41
2018-03-18T01:41:50.351Z,96741.91
2018-03-18T01:44:17.809Z,96735.00
2018-03-18T01:46:45.331Z,96737.42
2018-03-18T01:49:12.816Z,96737.19
2018-03-18T01:51:40.265Z,96741.95
2018-03-18T01:54:07.725Z,96734.89
2018-03-18T01:56:35.182Z,96737.89
2018-03-18T01:59:02.672Z,96731.90
2018-03-18T02:01:30.133Z,96735.64
2018-03-18T02:03:57.613Z,96736.18
2018-03-18T02:06:25.087Z,96727.62
2018-03-18T02:08:52.628Z,96733.67
2018-03-18T02:11:20.291Z,96726.97
2018-03-18T02:13:47.741Z,96727.93
2018-03-18T02:16:15.216Z,96729.97
2018-03-18T02:18:42.674Z,96728.74
2018-03-18T02:21:10.147Z,96728.54
2018-03-18T02:23:37.605Z,96730.99
2018-03-18T02:26:05.092Z,96723.01
2018-03-18T02:28:32.558Z,96726.64
2018-03-18T02:31:00.012Z,96730.30
2018-03-18T02:33:27.486Z,96728.95
2018-03-18T02:35:54.949Z,96724.41
2018-03-18T02:38:22.411Z,96722.64
2018-03-18T02:40:49.904Z,96732.06
2018-03-18T02:43:17.367Z,96722.69
2018-03-18T02:45:44.847Z,96731.63
2018-03-18T02:48:12.311Z,96724.25
2018-03-18T02:50:39.768Z,96728.52
2018-03-18T02:53:07.242Z,96722.05
2018-03-18T02:55:34.699Z,96727.72
2018-03-18T02:58:02.174Z,96720.71
2018-03-18T03:00:29.647Z,96719.09
2018-03-18T03:02:57.133Z,96719.80
2018-03-18T03:05:24.620Z,96718.79
2018-03-18T03:07:52.101Z,96716.80
2018-03-18T03:10:19.577Z,96717.50
2018-03-18T03:12:47.025Z,96716.75
2018-03-18T03:15:14.511Z,96712.78
2018-03-18T03:17:41.978Z,96711.34
2018-03-18T03:20:09.433Z,96718.67
2018-03-18T03:22:36.885Z,96709.20
2018-03-18T03:25:04.406Z,96710.47
2018-03-18T03:27:31.865Z,96724.61
2018-03-18T03:29:59.318Z,96716.31
2018-03-18T03:32:26.821Z,96718.13
2018-03-18T03:34:54.272Z,96726.80
2018-03-18T03:37:21.781Z,96721.18
2018-03-18T03:39:49.235Z,96723.00
2018-03-18T03:42:16.732Z,96726.33
2018-03-18T03:44:44.189Z,96724.45
2018-03-18T03:47:11.687Z,96729.91
2018-03-18T03:49:39.147Z,96719.53
2018-03-18T03:52:06.618Z,96726.22
2018-03-18T03:54:34.098Z,96723.81
2018-03-18T03:57:01.550Z,96727.88
2018-03-18T03:59:29.013Z,96730.78
2018-03-18T04:01:56.472Z,96730.99
2018-03-18T04:04:23.930Z,96735.69
2018-03-18T04:06:51.389Z,96737.73
2018-03-18T04:09:18.917Z,96736.97
2018-03-18T04:11:46.398Z,96738.21
2018-03-18T04:14:13.902Z,96741.20
2018-03-18T04:16:41.416Z,96743.20
2018-03-18T04:19:19.109Z,96739.17
2018-03-18T04:21:46.570Z,96745.38
2018-03-18T04:24:14.049Z,96741.59
2018-03-18T04:26:41.592Z,96739.81
2018-03-18T04:29:09.037Z,96742.11
2018-03-18T04:31:36.506Z,96745.45
2018-03-18T04:34:04.023Z,96740.41
2018-03-18T04:36:31.494Z,96746.71
2018-03-18T04:38:58.961Z,96749.00
2018-03-18T04:41:26.457Z,96745.42
2018-03-18T04:43:53.951Z,96745.81
2018-03-18T04:46:21.411Z,96750.42
2018-03-18T04:48:48.879Z,96744.80
2018-03-18T04:51:16.331Z,96744.38
2018-03-18T04:53:43.796Z,96752.76
2018-03-18T04:56:11.254Z,96749.72
2018-03-18T04:58:38.714Z,96753.05
2018-03-18T05:01:06.162Z,96753.91
2018-03-18T05:03:33.709Z,96756.33
2018-03-18T05:06:01.162Z,96758.50
2018-03-18T05:08:28.623Z,96759.13
2018-03-18T05:10:56.105Z,96765.41
2018-03-18T05:13:23.564Z,96760.74
2018-03-18T05:15:51.021Z,96762.16
2018-03-18T05:18:18.491Z,96765.47
2018-03-18T05:20:45.985Z,96771.08
2018-03-18T05:23:13.434Z,96767.88
2018-03-18T05:25:40.895Z,96769.16
2018-03-18T05:28:08.373Z,96766.91
2018-03-18T05:30:35.821Z,96768.15
2018-03-18T05:33:03.330Z,96773.24
2018-03-18T05:35:30.787Z,96775.91
2018-03-18T05:37:58.258Z,96777.12
2018-03-18T05:40:25.785Z,96778.91
2018-03-18T05:42:53.233Z,96782.19
2018-03-18T05:45:20.752Z,96783.47
2018-03-18T05:47:48.214Z,96797.95
2018-03-18T05:50:15.704Z,96794.42
2018-03-18T05:52:43.171Z,96803.05
2018-03-18T05:55:10.890Z,96804.23
2018-03-18T05:57:38.368Z,96806.55
2018-03-18T06:00:05.831Z,96802.89
2018-03-18T06:02:33.290Z,96810.93
2018-03-18T06:05:00.751Z,96807.05
2018-03-18T06:07:28.305Z,96817.03
2018-03-18T06:09:55.827Z,96817.74
2018-03-18T06:12:23.323Z,96819.36
2018-03-18T06:14:50.846Z,96814.11
2018-03-18T06:17:18.689Z,96819.78
2018-03-18T06:19:46.184Z,96816.66
2018-03-18T06:22:13.688Z,96817.09
2018-03-18T06:24:41.164Z,96823.89
2018-03-18T06:27:08.694Z,96825.94
2018-03-18T06:29:37.079Z,96829.48
2018-03-18T06:32:04.731Z,96830.61
2018-03-18T06:34:32.439Z,96830.44
2018-03-18T06:36:59.906Z,96836.56
2018-03-18T06:39:27.357Z,96838.44
2018-03-18T06:41:54.899Z,96835.17
2018-03-18T06:44:22.902Z,96849.62
2018-03-18T06:46:50.393Z,96842.41
2018-03-18T06:49:19.417Z,96842.41
2018-03-18T06:51:46.969Z,96851.41
2018-03-18T06:54:14.447Z,96853.91
2018-03-18T06:56:41.963Z,96850.77
2018-03-18T06:59:09.444Z,96859.66
2018-03-18T07:01:36.945Z,96857.95
2018-03-18T07:04:04.379Z,96863.73
2018-03-18T07:06:31.831Z,96865.19
2018-03-18T07:08:59.305Z,96868.82
2018-03-18T07:11:26.765Z,96867.70
2018-03-18T07:13:54.234Z,96874.91
2018-03-18T07:16:21.729Z,96873.92
2018-03-18T07:18:49.203Z,96885.23
2018-03-18T07:21:16.669Z,96882.02
2018-03-18T07:23:44.126Z,96887.39
2018-03-18T07:26:11.606Z,96886.63
2018-03-18T07:28:39.077Z,96891.98
2018-03-18T07:31:06.528Z,96895.64
2018-03-18T07:33:34.005Z,96901.95
2018-03-18T07:36:01.532Z,96898.95
2018-03-18T07:38:28.984Z,96899.22
2018-03-18T07:40:56.438Z,96908.16
2018-03-18T07:43:23.955Z,96913.53
2018-03-18T07:45:51.412Z,96911.20
2018-03-18T07:48:18.892Z,96916.98
2018-03-18T07:50:46.569Z,96916.70
2018-03-18T07:53:14.018Z,96915.88
2018-03-18T07:55:41.486Z,96920.59
2018-03-18T07:58:08.945Z,96920.16
2018-03-18T08:00:36.408Z,96920.36
2018-03-18T08:03:03.986Z,96923.92
2018-03-18T08:05:31.533Z,96930.93
2018-03-18T08:07:59.251Z,96936.71
2018-03-18T08:10:26.828Z,96938.24
2018-03-18T08:12:54.285Z,96940.26
2018-03-18T08:15:21.866Z,96946.95
2018-03-18T08:17:49.446Z,96948.29
2018-03-18T08:20:19.210Z,96945.82
2018-03-18T08:22:46.897Z,96949.48
2018-03-18T08:25:14.449Z,96954.84
2018-03-18T08:27:41.907Z,96951.02
2018-03-18T08:30:09.357Z,96955.00
2018-03-18T08:32:38.061Z,96958.44
2018-03-18T08:35:05.579Z,96964.86
2018-03-18T08:37:33.036Z,96969.67
2018-03-18T08:40:00.591Z,96966.11
2018-03-18T08:42:29.841Z,96960.20
2018-03-18T08:44:58.206Z,96964.21
2018-03-18T08:47:25.686Z,96960.93
2018-03-18T08:49:53.183Z,96960.67
2018-03-18T08:52:20.707Z,96966.19
2018-03-18T08:54:48.138Z,96953.81
2018-03-18T08:57:15.611Z,96963.33
2018-03-18T08:59:43.090Z,96961.91
2018-03-18T09:02:10.861Z,96956.61
2018-03-18T09:04:38.321Z,96958.02
2018-03-18T09:07:06.070Z,96965.53
2018-03-18T09:09:33.560Z,96969.20
2018-03-18T09:12:01.132Z,96970.16
2018-03-18T09:14:28.618Z,96965.55
2018-03-18T09:16:56.104Z,96969.50
2018-03-18T09:19:23.602Z,96963.34
2018-03-18T09:21:51.067Z,96965.25
2018-03-18T09:24:19.081Z,96964.41
2018-03-18T09:26:46.663Z,96966.84
2018-03-18T09:29:14.404Z,96968.09
2018-03-18T09:31:45.494Z,96972.39
2018-03-18T09:34:14.510Z,96977.55
2018-03-18T09:36:42.412Z,96972.74
2018-03-18T09:39:11.085Z,96980.98
2018-03-18T09:41:38.891Z,96978.27
2018-03-18T09:44:07.205Z,96982.86
2018-03-18T09:46:35.198Z,96986.80
2018-03-18T09:49:02.755Z,96973.70
2018-03-18T09:51:33.282Z,96986.21
2018-03-18T09:54:01.292Z,96987.12
2018-03-18T09:56:29.261Z,96977.77
2018-03-18T09:58:56.853Z,96980.50
2018-03-18T10:01:24.397Z,96980.58
2018-03-18T10:05:45.727Z,96987.18
2018-03-18T10:08:13.185Z,96991.89
2018-03-18T10:10:40.719Z,96988.22
2018-03-18T10:13:08.159Z,96986.78
2018-03-18T10:15:35.657Z,96978.83
2018-03-18T10:18:03.114Z,96979.05
2018-03-18T10:20:30.586Z,96979.58
2018-03-18T10:22:58.050Z,96988.75
2018-03-18T10:25:25.502Z,96979.00
2018-03-18T10:27:52.958Z,96979.06
2018-03-18T10:30:20.422Z,96979.82
2018-03-18T10:32:47.880Z,96981.56
2018-03-18T10:35:15.351Z,96986.49
2018-03-18T10:37:42.804Z,96973.30
2018-03-18T10:40:10.302Z,96980.93
2018-03-18T10:42:37.768Z,96982.01
2018-03-18T10:45:05.219Z,96984.33
2018-03-18T10:47:32.686Z,96976.97
2018-03-18T10:50:00.169Z,96972.23
2018-03-18T10:52:27.617Z,96974.57
2018-03-18T10:54:55.087Z,96975.87
2018-03-18T10:57:22.538Z,96979.51
2018-03-18T10:59:50.011Z,96975.26
2018-03-18T11:02:17.488Z,96985.92
2018-03-18T11:04:44.996Z,96983.45
2018-03-18T11:07:16.720Z,96989.47
2018-03-18T11:09:44.251Z,96994.08
2018-03-18T11:12:11.854Z,96990.79
2018-03-18T11:14:39.323Z,96990.64
2018-03-18T11:17:06.787Z,96995.73
2018-03-18T11:19:34.233Z,96994.22
2018-03-18T11:22:01.719Z,96994.86
2018-03-18T11:24:29.179Z,96999.48
2018-03-18T11:26:56.694Z,96995.47
2018-03-18T11:29:24.267Z,96995.66
2018-03-18T11:31:51.764Z,96997.36
2018-03-18T11:34:24.016Z,96995.60
2018-03-18T11:36:51.510Z,96992.09
2018-03-18T11:39:19.825Z,97000.68
2018-03-18T11:41:47.276Z,97000.67
2018-03-18T11:44:14.745Z,97000.36
2018-03-18T11:46:42.232Z,96994.11
2018-03-18T11:49:09.766Z,96998.66
2018-03-18T11:51:37.210Z,96996.33
2018-03-18T11:54:04.709Z,97000.61
2018-03-18T11:56:32.188Z,97004.13
2018-03-18T11:59:00.953Z,97010.23
2018-03-18T12:01:28.641Z,97008.73
2018-03-18T12:03:56.093Z,97008.11
2018-03-18T12:06:23.576Z,97011.97
2018-03-18T12:08:59.739Z,97013.57
2018-03-18T12:11:27.182Z,97011.55
2018-03-18T12:13:54.648Z,97012.84
2018-03-18T12:16:22.110Z,97007.42
2018-03-18T12:18:49.566Z,97012.86
2018-03-18T12:21:17.030Z,97010.42
2018-03-18T12:23:44.491Z,97008.38
2018-03-18T12:26:12.519Z,97010.75
2018-03-18T12:28:40.029Z,97013.96
2018-03-18T12:31:07.544Z,97015.34
2018-03-18T12:33:35.286Z,97013.05
2018-03-18T12:36:02.750Z,97022.42
2018-03-18T12:38:30.223Z,97021.22
2018-03-18T12:40:57.783Z,97023.47
2018-03-18T12:43:30.341Z,97021.20
2018-03-18T12:45:57.884Z,97027.48
2018-03-18T12:48:25.389Z,97021.75
2018-03-18T12:50:52.842Z,97024.44
2018-03-18T12:53:20.484Z,97022.23
2018-03-18T12:55:47.959Z,97023.93
2018-03-18T12:58:15.398Z,97023.84
2018-03-18T13:00:42.850Z,97031.84
2018-03-18T13:03:10.387Z,97021.86
2018-03-18T13:05:37.908Z,97024.14
2018-03-18T13:08:05.356Z,97028.77
2018-03-18T13:10:32.854Z,97029.75
2018-03-18T13:13:00.340Z,97028.15
2018-03-18T13:15:27.797Z,97023.38
2018-03-18T13:17:55.286Z,97029.69
2018-03-18T13:20:23.097Z,97026.81
2018-03-18T13:22:50.541Z,97026.08
2018-03-18T13:25:18.018Z,97027.26
2018-03-18T13:27:45.459Z,97030.39
2018-03-18T13:30:12.937Z,97029.58
2018-03-18T13:32:40.385Z,97028.23
2018-03-18T13:35:07.880Z,97032.42
2018-03-18T13:37:35.338Z,97032.94
2018-03-18T13:40:02.926Z,97037.36
2018-03-18T13:42:30.386Z,97041.13
2018-03-18T13:44:57.846Z,97038.00
2018-03-18T13:47:25.325Z,97031.34
2018-03-18T13:49:52.814Z,97041.58
2018-03-18T13:52:20.281Z,97051.09
2018-03-18T13:54:47.746Z,97049.57
2018-03-18T13:57:15.204Z,97052.61
2018-03-18T13:59:42.665Z,97048.36
2018-03-18T14:02:10.102Z,97056.41
2018-03-18T14:04:37.550Z,97064.16
2018-03-18T14:07:04.996Z,97061.31
2018-03-18T14:09:32.483Z,97064.75
2018-03-18T14:11:59.959Z,97070.02
2018-03-18T14:14:27.441Z,97074.66
2018-03-18T14:16:54.900Z,97077.00
2018-03-18T14:19:22.437Z,97080.59
2018-03-18T14:21:49.904Z,97077.86
2018-03-18T14:24:17.362Z,97082.52
2018-03-18T14:26:44.863Z,97089.77
2018-03-18T14:29:12.391Z,97086.48
2018-03-18T14:31:39.838Z,97088.48
2018-03-18T14:34:07.291Z,97089.72
2018-03-18T14:36:34.742Z,97092.86
2018-03-18T14:39:02.275Z,97093.53
2018-03-18T14:41:29.763Z,97091.33
2018-03-18T14:43:57.231Z,97099.23
2018-03-18T14:46:24.686Z,97103.54
2018-03-18T14:48:52.145Z,97110.78
2018-03-18T14:51:19.641Z,97107.19
2018-03-18T14:53:47.140Z,97116.80
2018-03-18T14:56:14.578Z,97116.57
2018-03-18T14:58:42.035Z,97118.89
2018-03-18T15:01:09.522Z,97119.30
2018-03-18T15:03:37.064Z,97126.43
2018-03-18T15:06:04.567Z,97123.69
2018-03-18T15:08:32.074Z,97124.34
2018-03-18T15:10:59.540Z,97127.29
2018-03-18T15:13:26.990Z,97130.02
2018-03-18T15:15:54.451Z,97134.47
2018-03-18T15:18:21.944Z,97126.86
2018-03-18T15:20:49.355Z,97134.89
2018-03-18T15:23:16.804Z,97140.98
2018-03-18T15:25:44.287Z,97139.09
2018-03-18T15:28:11.869Z,97147.27
2018-03-18T15:30:39.393Z,97143.21
2018-03-18T15:33:06.858Z,97143.02
2018-03-18T15:35:34.299Z,97153.53
2018-03-18T15:38:01.794Z,97159.53
2018-03-18T15:40:29.828Z,97160.27
2018-03-18T15:42:57.337Z,97160.28
2018-03-18T15:45:24.794Z,97165.75
2018-03-18T15:47:52.302Z,97157.44
2018-03-18T15:50:21.157Z,97159.14
2018-03-18T15:52:48.606Z,97168.40
2018-03-18T15:55:16.266Z,97171.33
2018-03-18T15:57:43.716Z,97178.09
2018-03-18T16:00:11.183Z,97180.88
2018-03-18T16:02:38.619Z,97177.72
2018-03-18T16:05:06.094Z,97181.58
2018-03-18T16:07:33.597Z,97195.47
2018-03-18T16:10:01.079Z,97195.52
2018-03-18T16:12:28.541Z,97194.88
2018-03-18T16:14:55.986Z,97204.88
2018-03-18T16:17:23.513Z,97203.92
2018-03-18T16:19:50.982Z,97201.64
2018-03-18T16:22:18.498Z,97206.38
2018-03-18T16:24:46.005Z,97205.79
2018-03-18T16:27:13.456Z,97202.08
2018-03-18T16:29:52.691Z,97211.00
2018-03-18T16:32:20.200Z,97203.58
2018-03-18T16:34:47.798Z,97216.19
2018-03-18T16:37:15.270Z,97217.06
2018-03-18T16:39:42.764Z,97217.48
2018-03-18T16:42:10.260Z,97222.27
2018-03-18T16:44:37.781Z,97229.56
2018-03-18T16:47:05.226Z,97224.03
2018-03-18T16:49:32.667Z,97235.66
2018-03-18T16:52:00.120Z,97239.53
2018-03-18T16:54:27.655Z,97239.48
2018-03-18T16:56:55.132Z,97239.20
2018-03-18T16:59:22.704Z,97247.13
2018-03-18T17:01:50.169Z,97251.14
2018-03-18T17:04:17.652Z,97248.01
2018-03-18T17:06:45.119Z,97244.10
2018-03-18T17:09:12.586Z,97254.67
2018-03-18T17:11:40.341Z,97260.34
2018-03-18T17:14:07.807Z,97262.73
2018-03-18T17:16:35.457Z,97271.02
2018-03-18T17:19:03.001Z,97278.75
2018-03-18T17:21:30.592Z,97284.34
2018-03-18T17:23:58.155Z,97283.80
2018-03-18T17:26:25.630Z,97287.23
2018-03-18T17:28:53.101Z,97295.46
2018-03-18T17:31:20.579Z,97298.00
2018-03-18T17:33:48.224Z,97312.23
2018-03-18T17:36:15.856Z,97311.34
2018-03-18T17:38:43.328Z,97319.53
2018-03-18T17:41:10.887Z,97322.83
2018-03-18T17:43:40.903Z,97328.91
2018-03-18T17:46:20.238Z,97328.30
2018-03-18T17:48:59.527Z,97328.84
2018-03-18T17:51:38.890Z,97337.45
2018-03-18T17:54:18.141Z,97336.91
2018-03-18T17:56:45.587Z,97340.91
2018-03-18T17:59:13.054Z,97340.73
2018-03-18T18:01:40.617Z,97342.05
2018-03-18T18:04:08.205Z,97343.23
2018-03-18T18:06:35.966Z,97348.30
2018-03-18T18:09:03.446Z,97353.67
2018-03-18T18:11:31.648Z,97353.95
2018-03-18T18:14:00.157Z,97349.45
2018-03-18T18:16:27.681Z,97353.71
2018-03-18T18:18:55.326Z,97355.17
2018-03-18T18:21:22.937Z,97356.42
2018-03-18T18:23:50.449Z,97358.50
2018-03-18T18:26:17.902Z,97363.02
2018-03-18T18:28:45.423Z,97359.42
2018-03-18T18:31:13.037Z,97361.53
2018-03-18T18:33:40.551Z,97364.03
2018-03-18T18:36:08.954Z,97366.14
2018-03-18T18:38:36.498Z,97371.72
2018-03-18T18:41:04.172Z,97378.33
2018-03-18T18:43:31.664Z,97379.25
2018-03-18T18:45:59.152Z,97375.22
2018-03-18T18:48:26.664Z,97374.07
2018-03-18T18:50:54.190Z,97378.26
2018-03-18T18:53:21.976Z,97389.08
2018-03-18T18:55:50.083Z,97390.40
2018-03-18T18:58:17.554Z,97390.72
2018-03-18T19:00:45.300Z,97388.94
2018-03-18T19:03:12.767Z,97383.30
2018-03-18T19:05:40.293Z,97394.78
2018-03-18T19:08:07.792Z,97396.63
2018-03-18T19:10:35.342Z,97403.72
2018-03-18T19:13:02.861Z,97394.78
2018-03-18T19:15:30.379Z,97402.16
2018-03-18T19:17:57.947Z,97392.27
2018-03-18T19:20:25.508Z,97400.02
2018-03-18T19:22:53.237Z,97398.83
2018-03-18T19:25:22.572Z,97400.42
2018-03-18T19:27:50.275Z,97400.02
2018-03-18T19:30:17.756Z,97404.73
2018-03-18T19:32:45.313Z,97406.42
2018-03-18T19:35:12.972Z,97405.59
2018-03-18T19:37:40.570Z,97401.97
2018-03-18T19:40:08.277Z,97408.77
2018-03-18T19:42:35.780Z,97402.28
2018-03-18T19:45:03.278Z,97408.72
2018-03-18T19:47:30.762Z,97407.86
2018-03-18T19:49:58.392Z,97408.77
2018-03-18T19:52:26.094Z,97403.17
2018-03-18T19:54:53.567Z,97408.38
2018-03-18T19:57:21.024Z,97409.17
2018-03-18T19:59:48.483Z,97410.91
2018-03-18T20:02:15.989Z,97410.55
2018-03-18T20:04:43.605Z,97405.31
2018-03-18T20:07:11.102Z,97411.63
2018-03-18T20:09:38.671Z,97409.58
2018-03-18T20:12:06.178Z,97412.02
2018-03-18T20:14:33.630Z,97408.72
2018-03-18T20:17:01.119Z,97418.39
2018-03-18T20:19:28.620Z,97426.25
2018-03-18T20:21:56.112Z,97421.09
2018-03-18T20:24:23.545Z,97418.17
2018-03-18T20:26:51.051Z,97427.20
2018-03-18T20:29:18.492Z,97424.09
2018-03-18T20:31:46.023Z,97417.63
2018-03-18T20:34:13.571Z,97422.80
2018-03-18T20:36:41.093Z,97420.14
2018-03-18T20:39:08.632Z,97427.42
2018-03-18T20:41:36.175Z,97427.39
2018-03-18T20:44:03.654Z,97433.95
2018-03-18T20:46:31.188Z,97427.00
2018-03-18T20:48:58.723Z,97440.28
2018-03-18T20:51:26.257Z,97429.97
2018-03-18T20:53:53.957Z,97431.28
2018-03-18T20:56:21.463Z,97430.39
2018-03-18T20:58:49.019Z,97436.91
2018-03-18T21:01:16.474Z,97440.83
2018-03-18T21:03:43.971Z,97436.03
2018-03-18T21:06:11.469Z,97439.86
2018-03-18T21:08:38.961Z,97449.72
2018-03-18T21:11:06.401Z,97440.80
2018-03-18T21:13:33.899Z,97444.66
2018-03-18T21:16:01.379Z,97436.86
2018-03-18T21:18:28.971Z,97443.80
2018-03-18T21:20:56.518Z,97441.05
2018-03-18T21:23:23.986Z,97441.08
2018-03-18T21:25:51.436Z,97442.15
2018-03-18T21:28:18.898Z,97444.72
2018-03-18T21:30:46.357Z,97439.43
2018-03-18T21:33:13.989Z,97433.45
2018-03-18T21:35:41.395Z,97440.23
2018-03-18T21:38:08.860Z,97446.27
2018-03-18T21:40:36.473Z,97442.97
2018-03-18T21:43:04.012Z,97446.32
2018-03-18T21:45:31.527Z,97449.44
2018-03-18T21:47:59.004Z,97446.46
2018-03-18T21:50:26.541Z,97451.95
2018-03-18T21:52:53.998Z,97445.92
2018-03-18T21:55:21.453Z,97449.06
2018-03-18T21:57:48.982Z,97455.52
2018-03-18T22:00:16.424Z,97451.92
2018-03-18T22:02:43.987Z,97450.83
2018-03-18T22:05:11.468Z,97446.86
2018-03-18T22:07:38.909Z,97451.49
2018-03-18T22:10:06.345Z,97455.44
2018-03-18T22:12:33.817Z,97449.75
2018-03-18T22:15:01.270Z,97445.41
2018-03-18T22:17:28.721Z,97448.46
2018-03-18T22:19:56.197Z,97457.06
2018-03-18T22:22:23.648Z,97449.63
2018-03-18T22:24:51.105Z,97461.84
2018-03-18T22:27:18.558Z,97461.89
2018-03-18T22:29:46.012Z,97454.95
2018-03-18T22:32:13.455Z,97460.95
2018-03-18T22:34:41.566Z,97454.12
2018-03-18T22:37:09.001Z,97452.06
2018-03-18T22:39:36.463Z,97455.80
2018-03-18T22:42:04.016Z,97452.03
2018-03-18T22:44:31.470Z,97454.03
2018-03-18T22:46:58.923Z,97452.63
2018-03-18T22:49:26.416Z,97449.75
2018-03-18T22:51:53.897Z,97450.15
2018-03-18T22:54:21.342Z,97452.81
2018-03-18T22:56:48.782Z,97447.23
2018-03-18T22:59:16.226Z,97451.46
2018-03-18T23:01:43.658Z,97450.58
2018-03-18T23:04:11.126Z,97460.01
2018-03-18T23:06:38.590Z,97452.69
2018-03-18T23:09:06.046Z,97455.75
2018-03-18T23:11:33.514Z,97457.01
2018-03-18T23:14:00.962Z,97458.03
2018-03-18T23:16:28.410Z,97459.77
2018-03-18T23:18:55.867Z,97454.83
2018-03-18T23:21:23.337Z,97458.38
2018-03-18T23:23:50.784Z,97454.13
2018-03-18T23:26:18.245Z,97456.95
2018-03-18T23:28:45.701Z,97457.06
2018-03-18T23:31:13.145Z,97450.69
2018-03-18T23:33:40.602Z,97452.03
2018-03-18T23:36:08.054Z,97452.78
2018-03-18T23:38:35.526Z,97454.34
2018-03-18T23:41:02.969Z,97450.72
2018-03-18T23:43:30.421Z,97451.60
2018-03-18T23:45:57.906Z,97456.59
2018-03-18T23:48:25.409Z,97450.51
2018-03-18T23:50:52.854Z,97447.86
2018-03-18T23:53:20.298Z,97458.09
2018-03-18T23:55:47.754Z,97447.11
2018-03-18T23:58:15.193Z,97452.17
